Ragan Village, North Carolina
Current Conditions -  °F | °C
As of 2:54 AM on Friday 24 Oct 2014 (Local Time) from KAKH Reporting Station
Clear Clear  
Wind Chill:   Ceiling: Unl
Heat Index:   Visibility: 10mi
Dew Point:   Wind: 7mph
Humidity: 82%   Direction: 10°N
Pressure: 30.04"   Gusts: NA
Location:  35.2631°N, 81.1487°W
Report Text: KAKH 240654Z AUTO 01006KT 10SM CLR 07/04 A3004 RMK AO2 SLP173 T00720044
Loading
Personal Weather Stations






























Interactive Weather Map
Tropical Storm Tracking
New forecast layout! Learn more

10-Day Weather Forecast

Advertisements
Track Severe Weather on mobile